createdAt,value
2022-10-29T00:02:06.951Z,95168.78
2022-10-29T00:04:33.598Z,95172.25
2022-10-29T00:07:00.353Z,95175.47
2022-10-29T00:09:27.000Z,95175.47
2022-10-29T00:11:53.614Z,95176.88
2022-10-29T00:14:20.257Z,95181.34
2022-10-29T00:16:46.964Z,95176.06
2022-10-29T00:19:13.574Z,95178.19
2022-10-29T00:21:40.652Z,95178.84
2022-10-29T00:24:09.575Z,95173.31
2022-10-29T00:26:36.345Z,95159.94
2022-10-29T00:29:03.213Z,95176.31
2022-10-29T00:31:31.148Z,95169.44
2022-10-29T00:33:57.833Z,95176.09
2022-10-29T00:36:27.010Z,95172.19
2022-10-29T00:38:53.814Z,95176.72
2022-10-29T00:41:23.043Z,95177.00
2022-10-29T00:44:11.035Z,95174.44
2022-10-29T00:49:10.207Z,95165.56
2022-10-29T00:51:37.349Z,95173.44
2022-10-29T00:54:07.164Z,95171.16
2022-10-29T00:56:37.078Z,95172.31
2022-10-29T00:59:05.602Z,95164.00
2022-10-29T01:01:32.413Z,95166.91
2022-10-29T01:04:00.310Z,95171.25
2022-10-29T01:06:28.669Z,95166.44
2022-10-29T01:08:55.335Z,95174.25
2022-10-29T01:11:36.720Z,95167.41
2022-10-29T01:14:27.932Z,95167.47
2022-10-29T01:17:20.390Z,95159.38
2022-10-29T01:20:05.497Z,95157.06
2022-10-29T01:22:35.233Z,95157.09
2022-10-29T01:25:32.782Z,95163.09
2022-10-29T01:28:14.448Z,95154.13
2022-10-29T01:30:53.176Z,95160.44
2022-10-29T01:33:32.519Z,95162.53
2022-10-29T01:36:12.374Z,95167.63
2022-10-29T01:38:54.266Z,95152.75
2022-10-29T01:41:25.837Z,95154.66
2022-10-29T01:44:15.598Z,95157.72
2022-10-29T01:46:52.607Z,95155.00
2022-10-29T01:49:24.934Z,95161.38
2022-10-29T01:51:52.778Z,95151.69
2022-10-29T01:54:19.520Z,95137.28
2022-10-29T01:56:57.117Z,95158.06
2022-10-29T01:59:35.717Z,95144.38
2022-10-29T02:02:33.296Z,95145.66
2022-10-29T02:05:08.957Z,95158.78
2022-10-29T02:07:55.015Z,95139.22
2022-10-29T02:10:38.362Z,95143.63
2022-10-29T02:13:05.086Z,95147.59
2022-10-29T02:15:34.913Z,95138.97
2022-10-29T02:18:03.303Z,95139.19
2022-10-29T02:20:30.383Z,95136.94
2022-10-29T02:22:57.464Z,95135.78
2022-10-29T02:25:24.362Z,95130.63
2022-10-29T02:27:51.085Z,95128.94
2022-10-29T02:30:17.988Z,95129.63
2022-10-29T02:32:44.768Z,95128.53
2022-10-29T02:35:11.542Z,95123.03
2022-10-29T02:37:38.269Z,95120.00
2022-10-29T02:40:05.427Z,95113.72
2022-10-29T02:42:32.124Z,95119.88
2022-10-29T02:44:58.872Z,95112.03
2022-10-29T02:47:25.522Z,95115.13
2022-10-29T02:49:52.317Z,95116.13
2022-10-29T02:52:19.016Z,95114.19
2022-10-29T02:54:45.688Z,95131.69
2022-10-29T02:57:12.423Z,95120.84
2022-10-29T02:59:39.167Z,95121.63
2022-10-29T03:02:06.028Z,95114.81
2022-10-29T03:04:33.296Z,95114.88
2022-10-29T03:07:00.435Z,95114.44
2022-10-29T03:09:27.056Z,95112.81
2022-10-29T03:11:53.746Z,95112.25
2022-10-29T03:14:20.403Z,95110.59
2022-10-29T03:16:47.103Z,95103.00
2022-10-29T03:19:13.719Z,95110.16
2022-10-29T03:21:40.403Z,95110.81
2022-10-29T03:24:07.343Z,95113.22
2022-10-29T03:26:34.086Z,95116.91
2022-10-29T03:29:00.967Z,95112.38
2022-10-29T03:31:27.697Z,95113.59
2022-10-29T03:33:54.396Z,95113.25
2022-10-29T03:36:21.194Z,95122.44
2022-10-29T03:38:48.044Z,95122.78
2022-10-29T03:41:14.857Z,95120.75
2022-10-29T03:43:41.602Z,95128.59
2022-10-29T03:46:08.827Z,95130.66
2022-10-29T03:48:35.697Z,95122.41
2022-10-29T03:51:06.020Z,95127.63
2022-10-29T03:53:34.426Z,95127.63
2022-10-29T03:56:01.185Z,95123.16
2022-10-29T03:58:28.236Z,95129.53
2022-10-29T04:00:59.400Z,95132.59
2022-10-29T04:03:27.455Z,95130.44
2022-10-29T04:05:54.225Z,95127.16
2022-10-29T04:08:20.945Z,95134.56
2022-10-29T04:10:48.711Z,95135.53
2022-10-29T04:13:15.873Z,95128.88
2022-10-29T04:15:42.724Z,95144.03
2022-10-29T04:18:10.778Z,95134.75
2022-10-29T04:21:08.735Z,95141.97
2022-10-29T04:28:58.473Z,95131.66
2022-10-29T04:31:25.107Z,95130.28
2022-10-29T04:33:53.274Z,95138.25
2022-10-29T04:36:19.878Z,95130.38
2022-10-29T04:38:46.502Z,95133.25
2022-10-29T04:41:13.081Z,95144.47
2022-10-29T04:43:39.681Z,95138.91
2022-10-29T04:46:06.304Z,95140.34
2022-10-29T04:48:33.134Z,95131.03
2022-10-29T04:50:59.769Z,95140.13
2022-10-29T04:53:26.346Z,95139.00
2022-10-29T04:56:01.532Z,95137.47
2022-10-29T04:58:28.482Z,95135.94
2022-10-29T05:01:01.298Z,95142.88
2022-10-29T05:03:27.971Z,95136.69
2022-10-29T05:05:54.538Z,95119.47
2022-10-29T05:08:21.629Z,95137.94
2022-10-29T05:10:48.210Z,95136.06
2022-10-29T05:13:15.090Z,95136.31
2022-10-29T05:15:42.057Z,95143.63
2022-10-29T05:18:10.178Z,95140.06
2022-10-29T05:20:36.805Z,95142.41
2022-10-29T05:23:08.513Z,95146.75
2022-10-29T05:25:37.203Z,95145.72
2022-10-29T05:28:21.199Z,95148.72
2022-10-29T05:30:49.732Z,95142.81
2022-10-29T05:33:19.358Z,95145.72
2022-10-29T05:35:46.443Z,95142.03
2022-10-29T05:38:14.619Z,95140.56
2022-10-29T05:40:42.833Z,95142.63
2022-10-29T05:43:09.428Z,95140.06
2022-10-29T05:45:36.045Z,95144.91
2022-10-29T05:48:04.181Z,95145.88
2022-10-29T05:50:32.100Z,95147.00
2022-10-29T05:53:00.617Z,95147.13
2022-10-29T05:55:28.015Z,95150.03
2022-10-29T05:58:05.146Z,95152.50
2022-10-29T06:00:34.737Z,95153.44
2022-10-29T06:03:01.902Z,95150.31
2022-10-29T06:05:28.960Z,95151.28
2022-10-29T06:07:59.999Z,95158.78
2022-10-29T06:10:28.904Z,95162.66
2022-10-29T06:12:55.770Z,95161.00
2022-10-29T06:15:23.131Z,95159.41
2022-10-29T06:17:50.154Z,95163.44
2022-10-29T06:20:21.037Z,95167.03
2022-10-29T06:22:48.251Z,95166.69
2022-10-29T06:25:14.866Z,95168.44
2022-10-29T06:27:41.641Z,95169.34
2022-10-29T06:30:08.982Z,95161.81
2022-10-29T06:32:35.622Z,95160.41
2022-10-29T06:35:02.276Z,95156.13
2022-10-29T06:37:29.785Z,95160.25
2022-10-29T06:39:56.451Z,95169.09
2022-10-29T06:42:23.023Z,95167.09
2022-10-29T06:44:49.583Z,95166.41
2022-10-29T06:47:16.350Z,95168.56
2022-10-29T06:49:42.923Z,95170.00
2022-10-29T06:52:09.487Z,95166.41
2022-10-29T06:54:36.168Z,95165.38
2022-10-29T06:57:02.831Z,95173.75
2022-10-29T06:59:29.460Z,95166.66
2022-10-29T07:01:56.174Z,95165.81
2022-10-29T07:04:22.907Z,95171.19
2022-10-29T07:06:49.523Z,95168.06
2022-10-29T07:09:16.168Z,95162.06
2022-10-29T07:11:42.800Z,95166.44
2022-10-29T07:14:10.048Z,95169.97
2022-10-29T07:16:36.978Z,95169.88
2022-10-29T07:19:04.352Z,95175.00
2022-10-29T07:21:31.088Z,95177.41
2022-10-29T07:23:57.779Z,95180.44
2022-10-29T07:26:24.536Z,95177.78
2022-10-29T07:28:51.107Z,95174.28
2022-10-29T07:31:17.876Z,95176.88
2022-10-29T07:33:44.587Z,95177.22
2022-10-29T07:36:11.293Z,95173.53
2022-10-29T07:38:39.441Z,95173.34
2022-10-29T07:41:06.292Z,95168.63
2022-10-29T07:43:33.102Z,95157.03
2022-10-29T07:45:59.892Z,95163.94
2022-10-29T07:48:26.672Z,95153.56
2022-10-29T07:50:53.403Z,95155.88
2022-10-29T07:53:20.132Z,95155.75
2022-10-29T07:55:53.173Z,95156.25
2022-10-29T07:58:19.920Z,95150.03
2022-10-29T08:00:46.662Z,95147.13
2022-10-29T08:03:13.922Z,95144.91
2022-10-29T08:05:42.794Z,95137.25
2022-10-29T08:08:10.003Z,95135.19
2022-10-29T08:10:36.789Z,95134.84
2022-10-29T08:13:04.847Z,95139.66
2022-10-29T08:15:33.211Z,95133.50
2022-10-29T08:18:00.005Z,95142.59
2022-10-29T08:20:28.170Z,95138.06
2022-10-29T08:22:55.508Z,95139.84
2022-10-29T08:25:22.603Z,95137.72
2022-10-29T08:28:19.052Z,95131.53
2022-10-29T08:30:49.904Z,95127.06
2022-10-29T08:33:17.304Z,95118.91
2022-10-29T08:35:44.063Z,95116.06
2022-10-29T08:38:10.764Z,95118.88
2022-10-29T08:40:55.743Z,95116.38
2022-10-29T08:43:25.283Z,95113.59
2022-10-29T08:45:53.394Z,95119.88
2022-10-29T08:48:22.952Z,95115.28
2022-10-29T08:51:26.211Z,95111.53
2022-10-29T08:54:24.932Z,95111.38
2022-10-29T08:56:54.302Z,95106.94
2022-10-29T08:59:25.501Z,95104.19
2022-10-29T09:01:53.917Z,95108.38
2022-10-29T09:04:25.282Z,95110.75
2022-10-29T09:07:12.242Z,95099.09
2022-10-29T09:10:11.310Z,95098.28
2022-10-29T09:12:56.610Z,95090.59
2022-10-29T09:15:38.261Z,95092.41
2022-10-29T09:18:15.421Z,95094.91
2022-10-29T09:21:22.475Z,95091.03
2022-10-29T09:24:08.896Z,95093.94
2022-10-29T09:26:48.384Z,95090.75
2022-10-29T09:29:27.554Z,95091.38
2022-10-29T09:32:14.964Z,95093.38
2022-10-29T09:34:45.114Z,95089.16
2022-10-29T09:37:30.351Z,95088.91
2022-10-29T09:39:58.742Z,95087.06
2022-10-29T09:42:46.491Z,95085.50
2022-10-29T09:45:16.574Z,95079.53
2022-10-29T09:47:53.818Z,95081.69
2022-10-29T09:50:29.251Z,95084.59
2022-10-29T09:52:56.330Z,95075.53
2022-10-29T09:55:34.283Z,95082.09
2022-10-29T09:58:01.153Z,95080.50
2022-10-29T10:00:32.199Z,95080.50
2022-10-29T10:03:06.934Z,95089.06
2022-10-29T10:05:35.572Z,95097.84
2022-10-29T10:08:13.762Z,95096.53
2022-10-29T10:10:57.937Z,95098.84
2022-10-29T10:13:33.303Z,95103.00
2022-10-29T10:16:02.346Z,95092.91
2022-10-29T10:18:32.062Z,95091.53
2022-10-29T10:21:29.358Z,95090.84
2022-10-29T10:24:00.591Z,95089.81
2022-10-29T10:26:39.495Z,95085.28
2022-10-29T10:29:17.849Z,95078.78
2022-10-29T10:31:46.928Z,95072.81
2022-10-29T10:34:18.160Z,95077.09
2022-10-29T10:36:57.465Z,95064.47
2022-10-29T10:39:31.177Z,95057.66
2022-10-29T10:41:59.950Z,95049.59
2022-10-29T10:44:27.481Z,95044.28
2022-10-29T10:46:56.243Z,95048.03
2022-10-29T10:49:30.462Z,95052.94
2022-10-29T10:51:58.284Z,95059.50
2022-10-29T10:54:39.257Z,95055.69
2022-10-29T10:57:12.251Z,95058.66
2022-10-29T10:59:54.930Z,95051.00
2022-10-29T11:02:24.692Z,95045.75
2022-10-29T11:05:00.881Z,95037.81
2022-10-29T11:07:34.523Z,95031.56
2022-10-29T11:10:04.233Z,95026.69
2022-10-29T11:12:33.370Z,95018.31
2022-10-29T11:15:10.591Z,95017.22
2022-10-29T11:18:00.928Z,95016.53
2022-10-29T11:20:35.302Z,95014.63
2022-10-29T11:23:23.520Z,95006.03
2022-10-29T11:26:34.554Z,95002.59
2022-10-29T11:29:11.735Z,95002.44
2022-10-29T11:31:48.032Z,94995.78
2022-10-29T11:34:33.334Z,94997.22
2022-10-29T11:37:17.853Z,94998.28
2022-10-29T11:40:05.025Z,94986.00
2022-10-29T11:42:31.883Z,94986.22
2022-10-29T11:44:59.369Z,94978.03
2022-10-29T11:47:50.623Z,94970.19
2022-10-29T11:50:41.312Z,94970.34
2022-10-29T11:53:15.532Z,94972.84
2022-10-29T11:56:11.951Z,94971.94
2022-10-29T11:58:53.051Z,94959.28
2022-10-29T12:01:45.099Z,94962.28
2022-10-29T12:04:24.247Z,94957.44
2022-10-29T12:07:22.162Z,94967.31
2022-10-29T12:10:15.580Z,94960.53
2022-10-29T12:12:49.500Z,94948.97
2022-10-29T12:15:24.243Z,94950.41
2022-10-29T12:18:00.932Z,94946.44
2022-10-29T12:20:37.595Z,94940.69
2022-10-29T12:23:25.474Z,94942.31
2022-10-29T12:26:09.712Z,94941.38
2022-10-29T12:28:36.381Z,94934.88
2022-10-29T12:31:20.478Z,94930.16
2022-10-29T12:34:16.372Z,94926.72
2022-10-29T12:36:53.436Z,94923.56
2022-10-29T12:39:30.092Z,94931.66
2022-10-29T12:42:17.170Z,94931.28
2022-10-29T12:45:22.612Z,94931.06
2022-10-29T12:47:51.391Z,94929.34
2022-10-29T12:50:21.194Z,94918.09
2022-10-29T12:53:29.213Z,94917.06
2022-10-29T12:55:57.413Z,94924.47
2022-10-29T12:58:43.053Z,94917.16
2022-10-29T13:01:57.212Z,94921.97
2022-10-29T13:04:31.942Z,94913.53
2022-10-29T13:07:18.780Z,94911.00
2022-10-29T13:09:48.367Z,94907.59
2022-10-29T13:12:55.842Z,94901.34
2022-10-29T13:16:04.484Z,94902.59
2022-10-29T13:18:41.689Z,94907.44
2022-10-29T13:21:09.119Z,94905.13
2022-10-29T13:23:37.655Z,94905.22
2022-10-29T13:26:06.143Z,94903.75
2022-10-29T13:28:35.852Z,94904.19
2022-10-29T13:31:08.664Z,94906.00
2022-10-29T13:33:38.420Z,94902.59
2022-10-29T13:36:17.426Z,94894.97
2022-10-29T13:39:05.033Z,94890.41
2022-10-29T13:41:43.215Z,94888.81
2022-10-29T13:44:26.653Z,94886.19
2022-10-29T13:47:02.226Z,94878.69
2022-10-29T13:49:33.093Z,94877.56
2022-10-29T13:52:08.802Z,94876.31
2022-10-29T13:54:55.233Z,94881.09
2022-10-29T13:57:29.062Z,94876.31
2022-10-29T14:00:08.177Z,94883.03
2022-10-29T14:02:43.620Z,94881.66
2022-10-29T14:05:16.393Z,94878.69
2022-10-29T14:07:56.692Z,94874.38
2022-10-29T14:10:26.586Z,94876.34
2022-10-29T14:13:01.692Z,94865.06
2022-10-29T14:15:28.421Z,94872.78
2022-10-29T14:17:55.213Z,94867.22
2022-10-29T14:20:26.884Z,94861.09
2022-10-29T14:22:54.123Z,94861.56
2022-10-29T14:25:35.741Z,94858.34
2022-10-29T14:28:32.561Z,94859.72
2022-10-29T14:31:16.743Z,94859.50
2022-10-29T14:33:52.630Z,94851.66
2022-10-29T14:36:25.160Z,94851.66
2022-10-29T14:39:00.383Z,94848.81
2022-10-29T14:41:29.538Z,94852.09
2022-10-29T14:44:09.827Z,94843.91
2022-10-29T14:46:37.836Z,94844.34
2022-10-29T14:49:21.899Z,94852.34
2022-10-29T14:51:53.585Z,94844.69
2022-10-29T14:54:25.119Z,94844.34
2022-10-29T14:56:56.483Z,94845.41
2022-10-29T14:59:28.214Z,94844.59
2022-10-29T15:02:05.588Z,94848.31
2022-10-29T15:04:47.993Z,94843.84
2022-10-29T15:07:22.871Z,94842.81
2022-10-29T15:09:51.151Z,94843.94
2022-10-29T15:12:36.003Z,94844.81
2022-10-29T15:15:18.064Z,94845.09
2022-10-29T15:17:52.965Z,94845.09
2022-10-29T15:20:25.280Z,94842.00
2022-10-29T15:22:56.243Z,94843.41
2022-10-29T15:25:34.512Z,94845.19
2022-10-29T15:28:01.881Z,94846.63
2022-10-29T15:30:33.330Z,94841.63
2022-10-29T15:33:01.481Z,94847.00
2022-10-29T15:35:28.483Z,94850.91
2022-10-29T15:37:55.584Z,94855.66
2022-10-29T15:40:25.050Z,94848.84
2022-10-29T15:42:52.663Z,94860.88
2022-10-29T15:45:20.576Z,94856.94
2022-10-29T15:47:58.844Z,94855.59
2022-10-29T15:50:47.584Z,94854.03
2022-10-29T15:53:16.072Z,94855.03
2022-10-29T15:55:43.520Z,94853.50
2022-10-29T15:58:18.102Z,94849.97
2022-10-29T16:00:44.903Z,94849.06
2022-10-29T16:03:21.379Z,94852.06
2022-10-29T16:05:50.399Z,94854.59
2022-10-29T16:08:37.119Z,94858.66
2022-10-29T16:11:07.963Z,94855.75
2022-10-29T16:13:35.201Z,94860.50
2022-10-29T16:16:02.176Z,94859.88
2022-10-29T16:18:28.959Z,94856.41
2022-10-29T16:21:00.271Z,94865.19
2022-10-29T16:23:27.051Z,94868.00
2022-10-29T16:25:53.794Z,94872.25
2022-10-29T16:28:20.582Z,94862.53
2022-10-29T16:30:50.815Z,94867.44
2022-10-29T16:33:18.132Z,94863.16
2022-10-29T16:35:44.865Z,94865.94
2022-10-29T16:38:12.605Z,94871.81
2022-10-29T16:40:39.612Z,94872.47
2022-10-29T16:43:06.354Z,94870.72
2022-10-29T16:45:33.111Z,94877.09
2022-10-29T16:48:00.158Z,94876.53
2022-10-29T16:50:34.638Z,94881.81
2022-10-29T16:53:02.315Z,94885.88
2022-10-29T16:55:29.839Z,94880.72
2022-10-29T16:57:57.238Z,94888.34
2022-10-29T17:00:26.042Z,94885.34
2022-10-29T17:02:53.059Z,94884.41
2022-10-29T17:05:19.853Z,94884.03
2022-10-29T17:07:46.554Z,94887.84
2022-10-29T17:10:13.231Z,94886.84
2022-10-29T17:12:39.939Z,94888.25
2022-10-29T17:15:07.506Z,94890.25
2022-10-29T17:17:34.265Z,94893.06
2022-10-29T17:20:01.013Z,94904.09
2022-10-29T17:22:27.679Z,94902.94
2022-10-29T17:24:54.353Z,94904.59
2022-10-29T17:27:21.121Z,94910.59
2022-10-29T17:29:48.084Z,94907.59
2022-10-29T17:32:15.054Z,94910.19
2022-10-29T17:34:41.731Z,94907.41
2022-10-29T17:37:09.385Z,94910.00
2022-10-29T17:39:36.132Z,94907.63
2022-10-29T17:42:02.882Z,94903.03
2022-10-29T17:44:30.942Z,94911.06
2022-10-29T17:46:57.743Z,94917.25
2022-10-29T17:49:25.857Z,94915.88
2022-10-29T17:51:53.163Z,94919.47
2022-10-29T17:54:21.415Z,94913.88
2022-10-29T17:56:49.184Z,94927.84
2022-10-29T17:59:15.982Z,94919.50
2022-10-29T18:01:44.212Z,94921.06
2022-10-29T18:04:11.233Z,94919.09
2022-10-29T18:06:38.076Z,94925.09
2022-10-29T18:09:04.864Z,94924.69
2022-10-29T18:11:31.662Z,94925.69
2022-10-29T18:13:58.459Z,94919.69
2022-10-29T18:16:27.340Z,94923.88
2022-10-29T18:19:01.995Z,94925.47
2022-10-29T18:21:30.370Z,94920.28
2022-10-29T18:23:57.183Z,94920.69
2022-10-29T18:26:25.403Z,94920.28
2022-10-29T18:28:53.623Z,94918.09
2022-10-29T18:31:21.102Z,94919.91
2022-10-29T18:33:48.100Z,94915.91
2022-10-29T18:36:14.852Z,94919.09
2022-10-29T18:38:41.771Z,94911.50
2022-10-29T18:41:09.082Z,94912.28
2022-10-29T18:43:36.054Z,94920.09
2022-10-29T18:46:05.237Z,94917.09
2022-10-29T18:48:32.853Z,94919.88
2022-10-29T18:51:20.217Z,94919.47
2022-10-29T18:53:47.126Z,94924.09
2022-10-29T18:56:15.971Z,94923.09
2022-10-29T18:58:43.400Z,94926.69
2022-10-29T19:01:17.848Z,94925.47
2022-10-29T19:03:49.361Z,94926.28
2022-10-29T19:06:16.104Z,94926.28
2022-10-29T19:08:43.939Z,94918.66
2022-10-29T19:11:16.232Z,94924.41
2022-10-29T19:13:42.842Z,94920.22
2022-10-29T19:16:11.653Z,94912.81
2022-10-29T19:18:39.523Z,94917.41
2022-10-29T19:21:11.641Z,94916.22
2022-10-29T19:23:38.668Z,94907.03
2022-10-29T19:26:09.654Z,94913.00
2022-10-29T19:28:36.713Z,94921.00
2022-10-29T19:31:07.399Z,94911.81
2022-10-29T19:33:34.631Z,94922.19
2022-10-29T19:36:01.909Z,94916.19
2022-10-29T19:38:28.771Z,94924.78
2022-10-29T19:40:58.495Z,94931.16
2022-10-29T19:43:26.005Z,94926.97
2022-10-29T19:45:53.142Z,94923.16
2022-10-29T19:48:19.914Z,94921.78
2022-10-29T19:50:53.848Z,94922.16
2022-10-29T19:53:21.261Z,94928.53
2022-10-29T19:55:50.581Z,94919.53
2022-10-29T19:58:18.291Z,94921.53
2022-10-29T20:00:45.016Z,94922.91
2022-10-29T20:03:12.427Z,94923.31
2022-10-29T20:05:42.637Z,94924.50
2022-10-29T20:08:11.512Z,94929.31
2022-10-29T20:10:41.472Z,94920.53
2022-10-29T20:13:08.173Z,94921.72
2022-10-29T20:15:34.874Z,94927.09
2022-10-29T20:18:01.487Z,94921.72
2022-10-29T20:20:28.175Z,94923.09
2022-10-29T20:22:55.127Z,94929.69
2022-10-29T20:25:24.015Z,94920.63
2022-10-29T20:27:51.009Z,94918.63
2022-10-29T20:30:17.863Z,94922.03
2022-10-29T20:32:44.465Z,94932.00
2022-10-29T20:35:11.078Z,94927.94
2022-10-29T20:37:37.936Z,94929.53
2022-10-29T20:40:05.499Z,94928.47
2022-10-29T20:42:32.246Z,94932.28
2022-10-29T20:44:58.861Z,94930.25
2022-10-29T20:47:25.467Z,94929.25
2022-10-29T20:49:52.082Z,94932.44
2022-10-29T20:52:18.672Z,94932.84
2022-10-29T20:54:45.289Z,94935.56
2022-10-29T20:57:11.903Z,94933.16
2022-10-29T20:59:38.504Z,94935.56
2022-10-29T21:02:05.268Z,94933.97
2022-10-29T21:04:31.949Z,94930.94
2022-10-29T21:06:58.526Z,94927.94
2022-10-29T21:09:25.102Z,94938.28
2022-10-29T21:11:51.713Z,94932.72
2022-10-29T21:14:18.345Z,94931.50
2022-10-29T21:16:44.977Z,94931.31
2022-10-29T21:19:11.604Z,94926.31
2022-10-29T21:21:39.987Z,94929.50
2022-10-29T21:24:06.738Z,94931.09
2022-10-29T21:26:33.289Z,94917.47
2022-10-29T21:28:59.880Z,94924.88
2022-10-29T21:31:26.641Z,94928.69
2022-10-29T21:33:54.019Z,94918.94
2022-10-29T21:36:21.267Z,94924.31
2022-10-29T21:38:48.360Z,94923.03
2022-10-29T21:41:15.368Z,94925.41
2022-10-29T21:43:41.929Z,94922.81
2022-10-29T21:46:08.505Z,94925.41
2022-10-29T21:48:35.338Z,94925.59
2022-10-29T21:51:07.267Z,94930.44
2022-10-29T21:53:34.434Z,94928.81
2022-10-29T21:56:02.775Z,94931.72
2022-10-29T21:58:29.943Z,94931.09
2022-10-29T22:01:07.586Z,94928.13
2022-10-29T22:03:35.060Z,94933.13
2022-10-29T22:06:05.747Z,94929.38
2022-10-29T22:08:33.092Z,94924.19
2022-10-29T22:11:00.122Z,94930.78
2022-10-29T22:13:30.573Z,94923.81
2022-10-29T22:15:57.272Z,94931.53
2022-10-29T22:18:24.836Z,94927.53
2022-10-29T22:21:04.017Z,94913.94
2022-10-29T22:23:30.664Z,94924.38
2022-10-29T22:25:57.277Z,94925.16
2022-10-29T22:28:23.947Z,94928.78
2022-10-29T22:30:57.529Z,94924.03
2022-10-29T22:33:24.123Z,94928.22
2022-10-29T22:35:50.721Z,94925.03
2022-10-29T22:38:17.959Z,94923.03
2022-10-29T22:40:44.517Z,94922.44
2022-10-29T22:43:12.100Z,94918.25
2022-10-29T22:45:38.746Z,94921.88
2022-10-29T22:48:05.635Z,94916.69
2022-10-29T22:50:32.235Z,94926.06
2022-10-29T22:52:59.073Z,94924.13
2022-10-29T22:55:25.863Z,94911.78
2022-10-29T22:57:52.485Z,94922.22
2022-10-29T23:00:19.228Z,94919.38
2022-10-29T23:02:45.839Z,94923.09
2022-10-29T23:05:12.564Z,94915.72
2022-10-29T23:07:39.245Z,94916.88
2022-10-29T23:10:07.470Z,94919.38
2022-10-29T23:12:34.173Z,94911.31
2022-10-29T23:15:00.860Z,94917.31
2022-10-29T23:17:27.533Z,94914.09
2022-10-29T23:19:56.350Z,94920.31
2022-10-29T23:22:26.409Z,94921.75
2022-10-29T23:24:54.331Z,94916.75
2022-10-29T23:27:20.977Z,94914.59
2022-10-29T23:29:47.575Z,94921.13
2022-10-29T23:32:14.404Z,94915.88
2022-10-29T23:34:41.131Z,94917.84
2022-10-29T23:37:09.908Z,94915.06
2022-10-29T23:39:37.088Z,94914.69
2022-10-29T23:42:04.145Z,94913.88
2022-10-29T23:44:30.736Z,94912.91
2022-10-29T23:46:57.353Z,94913.53
2022-10-29T23:49:24.057Z,94914.50
2022-10-29T23:51:50.709Z,94912.22
2022-10-29T23:54:17.429Z,94915.78
2022-10-29T23:56:44.089Z,94913.09
2022-10-29T23:59:10.922Z,94913.25
